Latest Weather Observations for Narrandera Airport

IDN60801

Issued at 4:04 pm EDT Sunday 1 February 2015 (issued every 30 minutes, with the page automatically refreshed every 10 minutes)

About weather observations | Map of weather stations | Latest weather observations for NSW | Other Formats
Station Details ID: 074148 Name: NARRANDERA AIRPORT AWS Lat: -34.70 Lon: 146.51 Height: 145.0 m
Data from the previous 72 hours. | See also: Recent months for locations in New South Wales
Date/Time
EDT
Temp
°C
App
Temp
°C
Dew
Point
Rel
Hum
%
Delta-T
°C
Wind Press
QNH
hPa
Press
MSL
hPa
Rain
since 9 am
mm
Dir
 
Spd
km/h
Gust
km/h
Spd
kts
Gust
kts
01/04:00pm 28.7 26.0 7.3 26 11.6 NW 11 19 6 10 1007.8 1007.0 0.0
01/03:30pm 28.3 25.0 8.1 28 11.1 WSW 15 24 8 13 1008.1 1007.3 0.0
01/03:00pm 27.4 25.7 8.3 30 10.4 NNW 7 15 4 8 1008.4 1007.6 0.0
01/02:30pm 27.4 26.0 9.7 33 9.9 W 7 24 4 13 1008.6 1007.8 0.0
01/02:00pm 26.5 23.0 8.9 33 9.7 WNW 17 26 9 14 1008.9 1008.1 0.0
01/01:30pm 26.7 23.5 10.0 35 9.3 WNW 17 28 9 15 1009.4 1008.6 0.0
01/01:00pm 25.1 21.6 10.2 39 8.3 WNW 19 28 10 15 1009.6 1008.8 0.0
01/12:30pm 24.9 22.6 11.8 44 7.5 WSW 15 26 8 14 1010.1 1009.3 0.0
01/12:00pm 24.0 21.9 11.3 45 7.2 WSW 13 22 7 12 1010.5 1009.8 0.0
01/11:30am 22.2 18.9 11.0 49 6.2 WSW 19 26 10 14 1010.7 1010.0 0.0
01/11:00am 21.3 18.8 11.1 52 5.7 W 15 22 8 12 1010.7 1010.0 0.0
01/10:30am 20.3 18.2 11.0 55 5.1 W 13 17 7 9 1010.7 1009.9 0.0
01/10:00am 18.6 15.5 10.2 58 4.5 W 17 20 9 11 1010.5 1009.7 0.0
01/09:30am 17.7 15.7 10.1 61 4.1 WSW 11 15 6 8 1010.4 1009.6 0.0
01/09:00am 17.2 14.4 9.9 62 3.9 WSW 15 20 8 11 1010.6 1009.8 0.0
01/08:30am 16.9 14.4 9.8 63 3.8 WSW 13 17 7 9 1010.3 1009.5 0.0
01/08:00am 16.0 13.8 9.4 65 3.4 W 11 15 6 8 1010.0 1009.2 0.0
01/07:30am 14.6 12.8 9.4 71 2.7 WNW 9 13 5 7 1009.8 1009.0 0.0
01/07:00am 13.4 12.4 8.9 74 2.3 NW 4 7 2 4 1009.4 1008.6 0.0
01/06:30am 13.8 12.8 8.8 72 2.5 WNW 4 9 2 5 1009.2 1008.4 0.0
01/06:00am 14.0 12.9 8.6 70 2.7 WSW 4 7 2 4 1008.9 1008.1 0.0
01/05:30am 14.5 12.6 8.9 69 2.9 SW 9 13 5 7 1008.7 1007.9 0.0
01/05:00am 14.6 13.2 9.0 69 2.9 SW 6 9 3 5 1008.8 1008.0 0.0
01/04:30am 15.1 13.6 9.0 67 3.1 WSW 7 11 4 6 1008.8 1008.0 0.0
01/04:00am 15.2 13.7 9.1 67 3.2 SW 7 9 4 5 1009.0 1008.2 0.0
01/03:30am 15.3 13.1 9.2 67 3.2 SSW 11 17 6 9 1008.9 1008.1 0.0
01/03:00am 15.2 13.6 8.9 66 3.2 SSW 7 11 4 6 1008.9 1008.1 0.0
01/02:30am 16.1 15.8 8.8 62 3.8 CALM 0 0 0 0 1009.0 1008.2 0.0
01/02:00am 17.2 15.4 9.6 61 4.0 SW 9 15 5 8 1009.1 1008.3 0.0
01/01:30am 17.9 15.0 9.5 58 4.4 SSW 15 20 8 11 1009.1 1008.3 0.0
01/01:00am 18.6 14.9 9.4 55 4.9 SSW 19 24 10 13 1009.1 1008.3 0.0
01/12:30am 19.5 15.7 9.1 51 5.5 SSW 19 24 10 13 1009.2 1008.4 0.0
01/12:00am 20.2 16.1 8.5 47 6.2 SSW 20 28 11 15 1009.4 1008.6 0.0
 
Date/Time
EDT
Temp
°C
App
Temp
°C
Dew
Point
Rel
Hum
%
Delta-T
°C
Wind Press
QNH
hPa
Press
MSL
hPa
Rain
since 9 am
mm
Dir
 
Spd
km/h
Gust
km/h
Spd
kts
Gust
kts
31/11:30pm 20.7 16.8 7.3 42 6.9 SSW 17 24 9 13 1009.5 1008.7 0.0
31/11:00pm 21.4 17.4 6.5 38 7.6 SSW 17 20 9 11 1009.5 1008.7 0.0
31/10:30pm 21.9 17.8 6.2 36 8.0 SSW 17 24 9 13 1009.4 1008.6 0.0
31/10:00pm 22.4 19.0 5.8 34 8.4 SSW 13 19 7 10 1009.1 1008.3 0.0
31/09:30pm 22.1 19.4 5.5 34 8.4 SSW 9 13 5 7 1008.9 1008.1 0.0
31/09:00pm 23.6 20.1 5.5 31 9.2 SSW 13 17 7 9 1008.7 1007.9 0.0
31/08:30pm 24.6 20.3 5.4 29 9.8 SSW 17 22 9 12 1008.5 1007.7 0.0
31/08:00pm 25.7 21.1 5.8 28 10.3 SW 19 26 10 14 1008.2 1007.4 0.0
31/07:30pm 26.6 22.1 6.1 27 10.7 SW 19 28 10 15 1007.8 1007.0 0.0
31/07:00pm 27.1 22.3 5.4 25 11.3 SW 20 28 11 15 1007.5 1006.7 0.0
31/06:30pm 28.0 23.6 6.7 26 11.3 SW 19 30 10 16 1007.3 1006.5 0.0
31/05:30pm 28.0 23.9 6.2 25 11.5 SW 17 32 9 17 1007.2 1006.4 0.0
31/05:00pm 28.6 24.3 7.2 26 11.6 SW 19 33 10 18 1007.5 1006.7 0.0
31/04:30pm 27.8 23.3 7.1 27 11.1 SW 20 35 11 19 1007.8 1007.0 0.0
31/04:00pm 27.6 23.5 6.4 26 11.2 WSW 17 30 9 16 1008.0 1007.2 0.0
31/03:30pm 27.3 22.7 6.7 27 10.9 WSW 20 33 11 18 1008.2 1007.4 0.0
31/03:00pm 27.6 23.3 6.9 27 11.1 WSW 19 30 10 16 1008.5 1007.7 0.0
31/02:30pm 26.8 22.8 6.8 28 10.6 SW 17 28 9 15 1008.5 1007.7 0.0
31/02:00pm 25.7 21.2 6.3 29 10.1 WSW 19 28 10 15 1008.8 1008.0 0.0
31/01:30pm 25.5 21.8 6.2 29 10.0 SW 15 30 8 16 1009.1 1008.3 0.0
31/01:00pm 24.4 20.7 6.2 31 9.4 WSW 15 26 8 14 1009.4 1008.6 0.0
31/12:30pm 24.7 21.0 6.4 31 9.5 SW 15 30 8 16 1009.6 1008.8 0.0
31/12:00pm 22.7 18.1 5.6 33 8.7 SW 19 28 10 15 1009.8 1009.0 0.0
31/11:30am 23.0 19.4 6.7 35 8.4 SW 15 24 8 13 1009.8 1009.0 0.0
31/11:00am 21.6 17.9 6.3 37 7.8 SW 15 24 8 13 1010.2 1009.4 0.0
31/10:30am 21.0 18.1 6.5 39 7.4 WSW 11 19 6 10 1010.3 1009.5 0.0
31/10:00am 19.6 17.3 7.4 45 6.3 WSW 9 13 5 7 1010.5 1009.7 0.0
31/09:30am 18.2 15.5 7.3 49 5.5 SSW 11 17 6 9 1010.6 1009.8 0.0
31/09:00am 17.2 14.2 7.8 54 4.8 S 13 17 7 9 1010.7 1009.9 0.0
31/08:30am 16.4 13.1 7.9 57 4.3 SSW 15 20 8 11 1010.7 1009.9 0.0
31/08:00am 15.0 11.6 7.5 61 3.7 SSW 15 20 8 11 1010.3 1009.5 0.0
31/07:30am 13.9 11.5 7.2 64 3.3 SW 9 15 5 8 1010.0 1009.2 0.0
31/07:00am 12.8 10.9 6.8 67 2.9 WSW 6 9 3 5 1009.8 1009.0 0.0
31/06:30am 11.9 11.2 6.8 71 2.5 CALM 0 0 0 0 1009.4 1008.6 0.0
31/06:00am 12.4 11.6 6.5 67 2.8 CALM 0 6 0 3 1009.1 1008.3 0.0
31/05:30am 12.8 12.1 6.8 67 2.9 CALM 0 0 0 0 1008.9 1008.1 0.0
31/05:00am 13.4 11.0 7.0 65 3.1 SSW 9 9 5 5 1008.9 1008.1 0.0
31/04:30am 14.5 12.1 7.1 61 3.6 S 9 13 5 7 1008.8 1008.0 0.0
31/04:00am 14.1 11.7 6.9 62 3.5 S 9 11 5 6 1008.8 1008.0 0.0
31/03:30am 14.0 11.2 7.1 63 3.4 SSW 11 13 6 7 1008.9 1008.1 0.0
31/03:00am 14.6 12.7 6.7 59 3.9 SSW 6 11 3 6 1009.0 1008.2 0.0
31/02:30am 15.3 12.9 6.8 57 4.2 SSW 9 11 5 6 1009.2 1008.4 0.0
31/02:00am 15.9 13.3 6.3 53 4.7 SSW 9 11 5 6 1009.4 1008.6 0.0
31/01:30am 16.8 13.4 6.0 49 5.3 SW 13 17 7 9 1009.5 1008.7 0.0
31/01:00am 16.9 14.3 6.1 49 5.3 SW 9 19 5 10 1009.6 1008.8 0.0
31/12:30am 16.1 14.9 6.5 53 4.7 SW 2 6 1 3 1009.6 1008.8 0.0
31/12:00am 17.0 16.1 6.2 49 5.3 CALM 0 6 0 3 1009.5 1008.7 0.0
 
Date/Time
EDT
Temp
°C
App
Temp
°C
Dew
Point
Rel
Hum
%
Delta-T
°C
Wind Press
QNH
hPa
Press
MSL
hPa
Rain
since 9 am
mm
Dir
 
Spd
km/h
Gust
km/h
Spd
kts
Gust
kts
30/11:30pm 18.1 15.5 6.3 46 5.9 SSW 9 11 5 6 1009.4 1008.6 0.0
30/11:00pm 18.8 16.7 6.0 43 6.4 WSW 6 11 3 6 1009.4 1008.6 0.0
30/10:30pm 18.7 16.0 5.5 42 6.5 WSW 9 11 5 6 1009.4 1008.6 0.0
30/10:00pm 19.3 17.8 5.0 39 7.0 S 2 9 1 5 1009.3 1008.5 0.0
30/09:30pm 20.5 17.6 4.5 35 7.8 S 9 11 5 6 1009.2 1008.4 0.0
30/09:00pm 21.0 19.7 4.1 33 8.2 CALM 0 2 0 1 1008.8 1008.0 0.0
30/08:30pm 22.3 19.4 4.4 31 8.8 S 9 13 5 7 1008.6 1007.8 0.0
30/08:00pm 23.6 19.8 4.0 28 9.7 SSW 13 19 7 10 1008.5 1007.7 0.0
30/07:30pm 24.5 19.9 3.8 26 10.3 S 17 24 9 13 1008.4 1007.6 0.0
30/07:00pm 25.2 20.6 3.8 25 10.7 S 17 22 9 12 1008.2 1007.4 0.0
30/06:30pm 25.1 19.8 3.1 24 10.8 SSW 20 28 11 15 1008.3 1007.5 0.0
30/06:00pm 25.3 19.6 2.7 23 11.1 SW 22 35 12 19 1008.3 1007.5 0.0
30/05:30pm 26.0 19.9 2.7 22 11.4 SSW 24 32 13 17 1008.4 1007.6 0.0
30/05:00pm 25.8 19.7 2.5 22 11.4 SSW 24 35 13 19 1008.5 1007.7 0.0
30/04:30pm 25.7 19.4 1.8 21 11.5 SW 24 43 13 23 1008.9 1008.1 0.0
30/04:00pm 25.9 20.3 3.2 23 11.2 SSW 22 39 12 21 1009.1 1008.3 0.0
30/03:30pm 25.3 19.7 3.3 24 10.9 SW 22 39 12 21 1009.4 1008.6 0.0
30/03:00pm 24.7 19.3 2.2 23 10.9 SW 20 39 11 21 1009.9 1009.1 0.0
30/02:30pm 25.0 20.2 2.4 23 10.9 SW 17 35 9 19 1010.2 1009.4 0.0
30/02:00pm 24.1 20.2 3.4 26 10.2 SSW 13 28 7 15 1010.6 1009.8 0.0
30/01:30pm 24.4 18.4 3.1 25 10.4 SSW 24 35 13 19 1011.1 1010.3 0.0
30/01:00pm 23.8 19.2 3.7 27 9.9 S 17 39 9 21 1011.5 1010.7 0.0
30/12:30pm 22.9 18.5 2.9 27 9.6 WSW 15 24 8 13 1011.7 1010.9 0.0
30/12:00pm 23.3 19.3 4.8 30 9.3 SSW 15 24 8 13 1012.1 1011.3 0.0
30/11:30am 22.0 18.4 5.0 33 8.5 SSW 13 26 7 14 1012.5 1011.6 0.0
30/11:00am 20.4 15.6 4.4 35 7.8 SE 19 24 10 13 1012.9 1012.0 0.0
30/10:30am 20.3 15.5 4.8 36 7.6 SE 19 28 10 15 1013.0 1012.2 0.0
30/10:00am 20.1 15.7 5.0 37 7.4 SSE 17 22 9 12 1013.1 1012.3 0.0
30/09:30am 19.0 14.3 5.1 40 6.8 S 19 26 10 14 1013.3 1012.5 0.0
30/09:00am 17.9 13.6 5.2 43 6.2 SSE 17 24 9 13 1013.6 1012.8 0.0
30/08:30am 17.0 13.6 5.9 48 5.4 S 13 19 7 10 1013.5 1012.7 0.0
30/08:00am 15.3 11.9 6.1 54 4.5 S 13 19 7 10 1013.3 1012.5 0.0
30/07:30am 13.9 11.6 5.5 57 4.0 S 7 9 4 5 1012.9 1012.0 0.0
30/07:00am 12.7 10.1 6.1 64 3.1 S 9 13 5 7 1012.7 1011.8 0.0
30/06:30am 12.3 9.7 5.9 65 3.0 S 9 11 5 6 1012.5 1011.6 0.0
30/06:00am 12.7 10.6 5.6 62 3.3 S 6 11 3 6 1012.2 1011.4 0.0
30/05:30am 13.4 10.7 5.6 59 3.7 S 9 11 5 6 1011.9 1011.1 0.0
30/05:00am 13.5 10.8 5.4 58 3.8 S 9 15 5 8 1011.9 1011.1 0.0
30/04:30am 14.0 10.9 5.6 57 4.0 S 11 15 6 8 1011.8 1011.0 0.0
30/04:00am 14.3 11.2 5.4 55 4.2 S 11 15 6 8 1011.8 1011.0 0.0
30/03:30am 14.5 11.4 5.6 55 4.3 S 11 13 6 7 1012.1 1011.3 0.0
30/03:00am 14.6 11.5 5.4 54 4.4 SSE 11 15 6 8 1012.2 1011.4 0.0
30/02:30am 15.4 12.4 5.9 53 4.6 SSE 11 15 6 8 1012.4 1011.5 0.0
30/02:00am 16.0 12.2 5.9 51 4.9 SSE 15 24 8 13 1012.4 1011.5 0.0
30/01:30am 16.6 12.8 5.9 49 5.2 SSE 15 20 8 11 1012.5 1011.6 0.0
30/01:00am 17.2 13.4 5.8 47 5.6 SSE 15 20 8 11 1012.6 1011.7 0.0
30/12:30am 17.8 13.6 5.7 45 5.9 SSE 17 20 9 11 1012.6 1011.7 0.0
30/12:00am 18.3 14.1 5.5 43 6.3 SSE 17 26 9 14 1012.5 1011.6 0.0
 
Date/Time
EDT
Temp
°C
App
Temp
°C
Dew
Point
Rel
Hum
%
Delta-T
°C
Wind Press
QNH
hPa
Press
MSL
hPa
Rain
since 9 am
mm
Dir
 
Spd
km/h
Gust
km/h
Spd
kts
Gust
kts
29/11:30pm 18.9 14.2 5.0 40 6.8 SSE 19 24 10 13 1012.6 1011.7 0.0
29/11:00pm 19.8 14.4 4.7 37 7.4 SSE 22 32 12 17 1012.5 1011.6 0.0
29/10:30pm 20.8 15.8 4.8 35 7.9 SSE 20 32 11 17 1012.6 1011.7 0.0
29/10:00pm 21.4 17.2 4.0 32 8.5 SSE 15 26 8 14 1012.5 1011.6 0.0
29/09:30pm 21.1 18.0 3.8 32 8.4 S 9 11 5 6 1012.0 1011.2 0.0
29/09:00pm 22.2 18.3 3.3 29 9.1 SSE 13 19 7 10 1011.7 1010.9 0.0
29/08:30pm 23.3 19.2 2.2 25 10.1 S 13 17 7 9 1011.5 1010.7 0.0
29/08:00pm 24.6 19.7 2.1 23 10.8 S 17 26 9 14 1011.2 1010.4 0.0
29/07:30pm 25.4 20.9 2.2 22 11.2 S 15 28 8 15 1011.1 1010.3 0.0
29/07:00pm 26.0 21.1 2.0 21 11.6 S 17 26 9 14 1011.0 1010.2 0.0
29/06:30pm 26.2 20.6 1.5 20 11.9 SSW 20 33 11 18 1010.9 1010.1 0.0
29/06:00pm 26.6 21.1 1.8 20 12.0 SW 20 32 11 17 1011.0 1010.2 0.0
29/05:30pm 26.3 21.9 2.9 22 11.5 S 15 24 8 13 1011.2 1010.4 0.0
29/05:00pm 26.8 21.3 2.0 20 12.1 S 20 26 11 14 1011.5 1010.7 0.0
29/04:30pm 27.1 22.1 3.6 22 11.8 SSE 19 28 10 15 1011.7 1010.9 0.0

Other Formats:

Comma delimited format used in spreadsheet applications
http://www.bom.gov.au/fwo/IDN60801/IDN60801.95706.axf

JavaScript Object Notation format (JSON) in row-major order
http://www.bom.gov.au/fwo/IDN60801/IDN60801.95706.json